sensor_id;sensor_type;location;lat;lon;timestamp;temperature;humidity
8008;DHT22;4049;49.468;11.200;2024-01-15T00:01:00;-3.70;99.90
8008;DHT22;4049;49.468;11.200;2024-01-15T00:03:28;-3.70;99.90
8008;DHT22;4049;49.468;11.200;2024-01-15T00:05:55;-3.70;99.90
8008;DHT22;4049;49.468;11.200;2024-01-15T00:08:22;-3.70;99.90
8008;DHT22;4049;49.468;11.200;2024-01-15T00:10:48;-3.80;99.90
8008;DHT22;4049;49.468;11.200;2024-01-15T00:13:15;-3.80;99.90
8008;DHT22;4049;49.468;11.200;2024-01-15T00:15:42;-3.80;99.90
8008;DHT22;4049;49.468;11.200;2024-01-15T00:18:09;-3.70;99.90
8008;DHT22;4049;49.468;11.200;2024-01-15T00:21:55;-3.70;99.90
8008;DHT22;4049;49.468;11.200;2024-01-15T00:24:01;-3.70;99.90
8008;DHT22;4049;49.468;11.200;2024-01-15T00:26:35;-3.70;99.90
8008;DHT22;4049;49.468;11.200;2024-01-15T00:29:28;-3.70;99.90
8008;DHT22;4049;49.468;11.200;2024-01-15T00:33:38;-3.70;99.90
8008;DHT22;4049;49.468;11.200;2024-01-15T00:35:42;-3.70;99.90
8008;DHT22;4049;49.468;11.200;2024-01-15T00:38:36;-3.70;99.90
8008;DHT22;4049;49.468;11.200;2024-01-15T00:41:22;-3.80;99.90
8008;DHT22;4049;49.468;11.200;2024-01-15T00:44:01;-3.80;99.90
8008;DHT22;4049;49.468;11.200;2024-01-15T00:59:34;-3.70;99.90
8008;DHT22;4049;49.468;11.200;2024-01-15T01:02:07;-3.70;99.90
8008;DHT22;4049;49.468;11.200;2024-01-15T01:04:35;-3.70;99.90
8008;DHT22;4049;49.468;11.200;2024-01-15T01:07:08;-3.70;99.90
8008;DHT22;4049;49.468;11.200;2024-01-15T01:10:25;-3.70;99.90
8008;DHT22;4049;49.468;11.200;2024-01-15T01:12:55;-3.70;99.90
8008;DHT22;4049;49.468;11.200;2024-01-15T01:15:24;-3.70;99.90
8008;DHT22;4049;49.468;11.200;2024-01-15T01:17:51;-3.70;99.90
8008;DHT22;4049;49.468;11.200;2024-01-15T01:20:18;-3.70;99.90
8008;DHT22;4049;49.468;11.200;2024-01-15T01:22:46;-3.70;99.90
8008;DHT22;4049;49.468;11.200;2024-01-15T01:28:20;-3.70;99.90
8008;DHT22;4049;49.468;11.200;2024-01-15T01:31:02;-3.60;99.90
8008;DHT22;4049;49.468;11.200;2024-01-15T01:33:29;-3.60;99.90
8008;DHT22;4049;49.468;11.200;2024-01-15T01:35:59;-3.60;99.90
8008;DHT22;4049;49.468;11.200;2024-01-15T01:38:33;-3.50;99.90
8008;DHT22;4049;49.468;11.200;2024-01-15T01:41:00;-3.50;99.90
8008;DHT22;4049;49.468;11.200;2024-01-15T01:43:27;-3.50;99.90
8008;DHT22;4049;49.468;11.200;2024-01-15T01:45:57;-3.50;99.90
8008;DHT22;4049;49.468;11.200;2024-01-15T01:51:48;-3.50;99.90
8008;DHT22;4049;49.468;11.200;2024-01-15T01:54:15;-3.50;99.90
8008;DHT22;4049;49.468;11.200;2024-01-15T02:06:37;-3.40;99.90
8008;DHT22;4049;49.468;11.200;2024-01-15T02:12:42;-3.40;99.90
8008;DHT22;4049;49.468;11.200;2024-01-15T02:15:18;-3.30;99.90
8008;DHT22;4049;49.468;11.200;2024-01-15T02:18:10;-3.30;99.90
8008;DHT22;4049;49.468;11.200;2024-01-15T02:24:45;-3.30;99.90
8008;DHT22;4049;49.468;11.200;2024-01-15T02:27:30;-3.30;99.90
8008;DHT22;4049;49.468;11.200;2024-01-15T02:30:14;-3.20;99.90
8008;DHT22;4049;49.468;11.200;2024-01-15T02:36:06;-3.20;99.90
8008;DHT22;4049;49.468;11.200;2024-01-15T02:38:47;-3.20;99.90
8008;DHT22;4049;49.468;11.200;2024-01-15T02:41:16;-3.20;99.90
8008;DHT22;4049;49.468;11.200;2024-01-15T02:43:43;-3.20;99.90
8008;DHT22;4049;49.468;11.200;2024-01-15T02:46:28;-3.10;99.90
8008;DHT22;4049;49.468;11.200;2024-01-15T02:48:55;-3.10;99.90
8008;DHT22;4049;49.468;11.200;2024-01-15T02:51:22;-3.10;99.90
8008;DHT22;4049;49.468;11.200;2024-01-15T02:53:57;-3.00;99.90
8008;DHT22;4049;49.468;11.200;2024-01-15T02:56:49;-3.00;99.90
8008;DHT22;4049;49.468;11.200;2024-01-15T02:59:19;-3.00;99.90
8008;DHT22;4049;49.468;11.200;2024-01-15T03:05:19;-3.00;99.90
8008;DHT22;4049;49.468;11.200;2024-01-15T03:16:56;-2.90;99.90
8008;DHT22;4049;49.468;11.200;2024-01-15T03:19:23;-2.90;99.90
8008;DHT22;4049;49.468;11.200;2024-01-15T03:21:51;-2.90;99.90
8008;DHT22;4049;49.468;11.200;2024-01-15T03:24:21;-2.90;99.90
8008;DHT22;4049;49.468;11.200;2024-01-15T03:26:48;-2.90;99.90
8008;DHT22;4049;49.468;11.200;2024-01-15T03:29:15;-2.90;99.90
8008;DHT22;4049;49.468;11.200;2024-01-15T03:31:42;-2.90;99.90
8008;DHT22;4049;49.468;11.200;2024-01-15T03:34:11;-2.80;99.90
8008;DHT22;4049;49.468;11.200;2024-01-15T03:36:41;-2.80;99.90
8008;DHT22;4049;49.468;11.200;2024-01-15T03:39:08;-2.80;99.90
8008;DHT22;4049;49.468;11.200;2024-01-15T03:41:35;-2.80;99.90
8008;DHT22;4049;49.468;11.200;2024-01-15T03:44:12;-2.80;99.90
8008;DHT22;4049;49.468;11.200;2024-01-15T03:46:50;-2.80;99.90
8008;DHT22;4049;49.468;11.200;2024-01-15T03:55:23;-2.80;99.90
8008;DHT22;4049;49.468;11.200;2024-01-15T03:58:23;-2.80;99.90
8008;DHT22;4049;49.468;11.200;2024-01-15T04:01:29;-2.70;99.90
8008;DHT22;4049;49.468;11.200;2024-01-15T04:04:48;-2.80;99.90
8008;DHT22;4049;49.468;11.200;2024-01-15T04:10:33;-2.70;99.90
8008;DHT22;4049;49.468;11.200;2024-01-15T04:13:28;-2.70;99.90
8008;DHT22;4049;49.468;11.200;2024-01-15T04:15:55;-2.70;99.90
8008;DHT22;4049;49.468;11.200;2024-01-15T04:18:22;-2.70;99.90
8008;DHT22;4049;49.468;11.200;2024-01-15T04:21:33;-2.70;99.90
8008;DHT22;4049;49.468;11.200;2024-01-15T04:24:13;-2.70;99.90
8008;DHT22;4049;49.468;11.200;2024-01-15T04:27:04;-2.70;99.90
8008;DHT22;4049;49.468;11.200;2024-01-15T04:29:37;-2.60;99.90
8008;DHT22;4049;49.468;11.200;2024-01-15T04:32:05;-2.60;99.90
8008;DHT22;4049;49.468;11.200;2024-01-15T04:34:32;-2.60;99.90
8008;DHT22;4049;49.468;11.200;2024-01-15T04:36:59;-2.60;99.90
8008;DHT22;4049;49.468;11.200;2024-01-15T04:39:26;-2.60;99.90
8008;DHT22;4049;49.468;11.200;2024-01-15T04:41:54;-2.60;99.90
8008;DHT22;4049;49.468;11.200;2024-01-15T04:44:22;-2.50;99.90
8008;DHT22;4049;49.468;11.200;2024-01-15T04:46:49;-2.50;99.90
8008;DHT22;4049;49.468;11.200;2024-01-15T04:49:19;-2.50;99.90
8008;DHT22;4049;49.468;11.200;2024-01-15T04:51:46;-2.50;99.90
8008;DHT22;4049;49.468;11.200;2024-01-15T04:54:22;-2.40;99.90
8008;DHT22;4049;49.468;11.200;2024-01-15T04:56:55;-2.40;99.90
8008;DHT22;4049;49.468;11.200;2024-01-15T04:59:22;-2.40;99.90
8008;DHT22;4049;49.468;11.200;2024-01-15T05:01:52;-2.40;99.90
8008;DHT22;4049;49.468;11.200;2024-01-15T05:04:20;-2.40;99.90
8008;DHT22;4049;49.468;11.200;2024-01-15T05:06:47;-2.40;99.90
8008;DHT22;4049;49.468;11.200;2024-01-15T05:09:14;-2.30;99.90
8008;DHT22;4049;49.468;11.200;2024-01-15T05:11:41;-2.40;99.90
8008;DHT22;4049;49.468;11.200;2024-01-15T05:14:10;-2.30;99.90
8008;DHT22;4049;49.468;11.200;2024-01-15T05:16:38;-2.30;99.90
8008;DHT22;4049;49.468;11.200;2024-01-15T05:19:26;-2.30;99.90
8008;DHT22;4049;49.468;11.200;2024-01-15T05:21:59;-2.30;99.90
8008;DHT22;4049;49.468;11.200;2024-01-15T05:24:32;-2.20;99.90
8008;DHT22;4049;49.468;11.200;2024-01-15T05:27:02;-2.20;99.90
8008;DHT22;4049;49.468;11.200;2024-01-15T05:29:31;-2.20;99.90
8008;DHT22;4049;49.468;11.200;2024-01-15T05:31:58;-2.20;99.90
8008;DHT22;4049;49.468;11.200;2024-01-15T05:34:24;-2.20;99.90
8008;DHT22;4049;49.468;11.200;2024-01-15T05:36:51;-2.20;99.90
8008;DHT22;4049;49.468;11.200;2024-01-15T05:39:18;-2.20;99.90
8008;DHT22;4049;49.468;11.200;2024-01-15T05:41:45;-2.20;99.90
8008;DHT22;4049;49.468;11.200;2024-01-15T05:44:12;-2.20;99.90
8008;DHT22;4049;49.468;11.200;2024-01-15T05:46:40;-2.20;99.90
8008;DHT22;4049;49.468;11.200;2024-01-15T05:49:07;-2.20;99.90
8008;DHT22;4049;49.468;11.200;2024-01-15T05:51:34;-2.10;99.90
8008;DHT22;4049;49.468;11.200;2024-01-15T05:54:01;-2.10;99.90
8008;DHT22;4049;49.468;11.200;2024-01-15T05:56:28;-2.10;99.90
8008;DHT22;4049;49.468;11.200;2024-01-15T05:58:55;-2.10;99.90
8008;DHT22;4049;49.468;11.200;2024-01-15T06:01:22;-2.10;99.90
8008;DHT22;4049;49.468;11.200;2024-01-15T06:03:50;-2.10;99.90
8008;DHT22;4049;49.468;11.200;2024-01-15T06:06:17;-2.10;99.90
8008;DHT22;4049;49.468;11.200;2024-01-15T06:08:48;-2.00;99.90
8008;DHT22;4049;49.468;11.200;2024-01-15T06:11:15;-2.00;99.90
8008;DHT22;4049;49.468;11.200;2024-01-15T06:13:41;-2.10;99.90
8008;DHT22;4049;49.468;11.200;2024-01-15T06:16:13;-2.10;99.90
8008;DHT22;4049;49.468;11.200;2024-01-15T06:18:41;-2.00;99.90
8008;DHT22;4049;49.468;11.200;2024-01-15T06:21:09;-2.00;99.90
8008;DHT22;4049;49.468;11.200;2024-01-15T06:23:38;-2.00;99.90
8008;DHT22;4049;49.468;11.200;2024-01-15T06:26:05;-2.00;99.90
8008;DHT22;4049;49.468;11.200;2024-01-15T06:28:32;-1.90;99.90
8008;DHT22;4049;49.468;11.200;2024-01-15T06:30:59;-1.90;99.90
8008;DHT22;4049;49.468;11.200;2024-01-15T06:33:25;-1.90;99.90
8008;DHT22;4049;49.468;11.200;2024-01-15T06:35:52;-1.90;99.90
8008;DHT22;4049;49.468;11.200;2024-01-15T06:38:20;-1.90;99.90
8008;DHT22;4049;49.468;11.200;2024-01-15T06:40:47;-1.90;99.90
8008;DHT22;4049;49.468;11.200;2024-01-15T06:43:14;-1.90;99.90
8008;DHT22;4049;49.468;11.200;2024-01-15T06:45:41;-1.80;99.90
8008;DHT22;4049;49.468;11.200;2024-01-15T06:48:08;-2.00;99.90
8008;DHT22;4049;49.468;11.200;2024-01-15T06:50:35;-2.00;99.90
8008;DHT22;4049;49.468;11.200;2024-01-15T06:53:02;-2.00;99.90
8008;DHT22;4049;49.468;11.200;2024-01-15T06:55:30;-2.00;99.90
8008;DHT22;4049;49.468;11.200;2024-01-15T06:57:57;-2.00;99.90
8008;DHT22;4049;49.468;11.200;2024-01-15T07:00:24;-2.00;99.90
8008;DHT22;4049;49.468;11.200;2024-01-15T07:02:50;-2.00;99.90
8008;DHT22;4049;49.468;11.200;2024-01-15T07:05:17;-2.00;99.90
8008;DHT22;4049;49.468;11.200;2024-01-15T07:07:44;-2.00;99.90
8008;DHT22;4049;49.468;11.200;2024-01-15T07:10:11;-2.00;99.90
8008;DHT22;4049;49.468;11.200;2024-01-15T07:12:41;-2.00;99.90
8008;DHT22;4049;49.468;11.200;2024-01-15T07:15:09;-2.00;99.90
8008;DHT22;4049;49.468;11.200;2024-01-15T07:17:36;-2.00;99.90
8008;DHT22;4049;49.468;11.200;2024-01-15T07:20:06;-2.00;99.90
8008;DHT22;4049;49.468;11.200;2024-01-15T07:22:33;-2.00;99.90
8008;DHT22;4049;49.468;11.200;2024-01-15T07:25:00;-2.00;99.90
8008;DHT22;4049;49.468;11.200;2024-01-15T07:27:27;-1.90;99.90
8008;DHT22;4049;49.468;11.200;2024-01-15T07:29:55;-1.90;99.90
8008;DHT22;4049;49.468;11.200;2024-01-15T07:32:22;-1.90;99.90
8008;DHT22;4049;49.468;11.200;2024-01-15T07:34:49;-1.80;99.90
8008;DHT22;4049;49.468;11.200;2024-01-15T07:37:16;-1.80;99.90
8008;DHT22;4049;49.468;11.200;2024-01-15T07:39:43;-1.80;99.90
8008;DHT22;4049;49.468;11.200;2024-01-15T07:42:09;-1.80;99.90
8008;DHT22;4049;49.468;11.200;2024-01-15T07:44:36;-1.80;99.90
8008;DHT22;4049;49.468;11.200;2024-01-15T07:47:05;-1.80;99.90
8008;DHT22;4049;49.468;11.200;2024-01-15T07:49:32;-1.80;99.90
8008;DHT22;4049;49.468;11.200;2024-01-15T07:51:59;-1.80;99.90
8008;DHT22;4049;49.468;11.200;2024-01-15T07:54:25;-1.70;99.90
8008;DHT22;4049;49.468;11.200;2024-01-15T07:56:56;-1.80;99.90
8008;DHT22;4049;49.468;11.200;2024-01-15T07:59:23;-1.80;99.90
8008;DHT22;4049;49.468;11.200;2024-01-15T08:01:51;-1.80;99.90
8008;DHT22;4049;49.468;11.200;2024-01-15T08:04:19;-1.80;99.90
8008;DHT22;4049;49.468;11.200;2024-01-15T08:06:47;-1.70;99.90
8008;DHT22;4049;49.468;11.200;2024-01-15T08:09:14;-1.70;99.90
8008;DHT22;4049;49.468;11.200;2024-01-15T08:11:41;-1.70;99.90
8008;DHT22;4049;49.468;11.200;2024-01-15T08:14:08;-1.70;99.90
8008;DHT22;4049;49.468;11.200;2024-01-15T08:16:35;-1.70;99.90
8008;DHT22;4049;49.468;11.200;2024-01-15T08:19:02;-1.70;99.90
8008;DHT22;4049;49.468;11.200;2024-01-15T08:21:30;-1.70;99.90
8008;DHT22;4049;49.468;11.200;2024-01-15T08:23:57;-1.70;99.90
8008;DHT22;4049;49.468;11.200;2024-01-15T08:26:24;-1.70;99.90
8008;DHT22;4049;49.468;11.200;2024-01-15T08:28:51;-1.70;99.90
8008;DHT22;4049;49.468;11.200;2024-01-15T08:31:18;-1.60;99.90
8008;DHT22;4049;49.468;11.200;2024-01-15T08:33:45;-1.60;99.90
8008;DHT22;4049;49.468;11.200;2024-01-15T08:36:12;-1.50;99.90
8008;DHT22;4049;49.468;11.200;2024-01-15T08:38:40;-1.60;99.90
8008;DHT22;4049;49.468;11.200;2024-01-15T08:41:08;-1.60;99.90
8008;DHT22;4049;49.468;11.200;2024-01-15T08:43:35;-1.60;99.90
8008;DHT22;4049;49.468;11.200;2024-01-15T08:46:03;-1.60;99.90
8008;DHT22;4049;49.468;11.200;2024-01-15T08:48:29;-1.50;99.90
8008;DHT22;4049;49.468;11.200;2024-01-15T08:50:56;-1.50;99.90
8008;DHT22;4049;49.468;11.200;2024-01-15T08:53:23;-1.50;99.90
8008;DHT22;4049;49.468;11.200;2024-01-15T08:55:51;-1.50;99.90
8008;DHT22;4049;49.468;11.200;2024-01-15T08:58:18;-1.50;99.90
8008;DHT22;4049;49.468;11.200;2024-01-15T09:00:45;-1.40;99.90
8008;DHT22;4049;49.468;11.200;2024-01-15T09:03:12;-1.40;99.90
8008;DHT22;4049;49.468;11.200;2024-01-15T09:05:39;-1.40;99.90
8008;DHT22;4049;49.468;11.200;2024-01-15T09:08:06;-1.40;99.90
8008;DHT22;4049;49.468;11.200;2024-01-15T09:10:33;-1.40;99.90
8008;DHT22;4049;49.468;11.200;2024-01-15T09:13:01;-1.40;99.90
8008;DHT22;4049;49.468;11.200;2024-01-15T09:15:29;-1.30;99.90
8008;DHT22;4049;49.468;11.200;2024-01-15T09:17:56;-1.30;99.90
8008;DHT22;4049;49.468;11.200;2024-01-15T09:20:24;-1.30;99.90
8008;DHT22;4049;49.468;11.200;2024-01-15T09:22:53;-1.30;99.90
8008;DHT22;4049;49.468;11.200;2024-01-15T09:25:19;-1.20;99.90
8008;DHT22;4049;49.468;11.200;2024-01-15T09:27:46;-1.20;99.90
8008;DHT22;4049;49.468;11.200;2024-01-15T09:30:15;-1.20;99.90
8008;DHT22;4049;49.468;11.200;2024-01-15T09:32:42;-1.30;99.90
8008;DHT22;4049;49.468;11.200;2024-01-15T09:35:09;-1.20;99.90
8008;DHT22;4049;49.468;11.200;2024-01-15T09:37:39;-1.30;99.90
8008;DHT22;4049;49.468;11.200;2024-01-15T09:40:08;-1.20;99.90
8008;DHT22;4049;49.468;11.200;2024-01-15T09:42:39;-1.20;99.90
8008;DHT22;4049;49.468;11.200;2024-01-15T09:45:07;-1.20;99.90
8008;DHT22;4049;49.468;11.200;2024-01-15T09:47:36;-1.20;99.90
8008;DHT22;4049;49.468;11.200;2024-01-15T09:50:04;-1.10;99.90
8008;DHT22;4049;49.468;11.200;2024-01-15T09:52:31;-1.10;99.90
8008;DHT22;4049;49.468;11.200;2024-01-15T09:54:58;-1.10;99.90
8008;DHT22;4049;49.468;11.200;2024-01-15T09:57:29;-1.10;99.90
8008;DHT22;4049;49.468;11.200;2024-01-15T09:59:59;-1.10;99.90
8008;DHT22;4049;49.468;11.200;2024-01-15T10:02:29;-1.10;99.90
8008;DHT22;4049;49.468;11.200;2024-01-15T10:04:58;-1.10;99.90
8008;DHT22;4049;49.468;11.200;2024-01-15T10:07:26;-1.10;99.90
8008;DHT22;4049;49.468;11.200;2024-01-15T10:09:53;-1.00;99.90
8008;DHT22;4049;49.468;11.200;2024-01-15T10:12:21;-1.00;99.90
8008;DHT22;4049;49.468;11.200;2024-01-15T10:14:48;-0.90;99.90
8008;DHT22;4049;49.468;11.200;2024-01-15T10:17:16;-0.90;99.90
8008;DHT22;4049;49.468;11.200;2024-01-15T10:19:45;-0.90;99.90
8008;DHT22;4049;49.468;11.200;2024-01-15T10:22:14;-0.90;99.90
8008;DHT22;4049;49.468;11.200;2024-01-15T10:24:41;-0.90;99.90
8008;DHT22;4049;49.468;11.200;2024-01-15T10:27:11;-0.90;99.90
8008;DHT22;4049;49.468;11.200;2024-01-15T10:29:37;-0.90;99.90
8008;DHT22;4049;49.468;11.200;2024-01-15T10:32:06;-0.90;99.90
8008;DHT22;4049;49.468;11.200;2024-01-15T10:34:37;-0.90;99.90
8008;DHT22;4049;49.468;11.200;2024-01-15T10:37:06;-0.90;99.90
8008;DHT22;4049;49.468;11.200;2024-01-15T10:39:35;-1.00;99.90
8008;DHT22;4049;49.468;11.200;2024-01-15T10:42:02;-1.00;99.90
8008;DHT22;4049;49.468;11.200;2024-01-15T10:44:29;-1.00;99.90
8008;DHT22;4049;49.468;11.200;2024-01-15T10:46:57;-1.00;99.90
8008;DHT22;4049;49.468;11.200;2024-01-15T10:49:24;-1.00;99.90
8008;DHT22;4049;49.468;11.200;2024-01-15T10:51:52;-1.00;99.90
8008;DHT22;4049;49.468;11.200;2024-01-15T10:54:20;-1.00;99.90
8008;DHT22;4049;49.468;11.200;2024-01-15T10:56:50;-0.90;99.90
8008;DHT22;4049;49.468;11.200;2024-01-15T10:59:16;-0.90;99.90
8008;DHT22;4049;49.468;11.200;2024-01-15T11:01:45;-0.90;99.90
8008;DHT22;4049;49.468;11.200;2024-01-15T11:04:13;-0.90;99.90
8008;DHT22;4049;49.468;11.200;2024-01-15T11:06:42;-0.90;99.90
8008;DHT22;4049;49.468;11.200;2024-01-15T11:09:10;-0.90;99.90
8008;DHT22;4049;49.468;11.200;2024-01-15T11:11:41;-0.90;99.90
8008;DHT22;4049;49.468;11.200;2024-01-15T11:14:09;-0.90;99.90
8008;DHT22;4049;49.468;11.200;2024-01-15T11:16:55;-0.90;99.90
8008;DHT22;4049;49.468;11.200;2024-01-15T11:19:25;-0.90;99.90
8008;DHT22;4049;49.468;11.200;2024-01-15T11:21:52;-0.90;99.90
8008;DHT22;4049;49.468;11.200;2024-01-15T11:24:38;-0.90;99.90
8008;DHT22;4049;49.468;11.200;2024-01-15T11:27:06;-0.90;99.90
8008;DHT22;4049;49.468;11.200;2024-01-15T11:29:35;-0.80;99.90
8008;DHT22;4049;49.468;11.200;2024-01-15T11:32:04;-0.80;99.90
8008;DHT22;4049;49.468;11.200;2024-01-15T11:34:53;-0.90;99.90
8008;DHT22;4049;49.468;11.200;2024-01-15T11:37:20;-0.80;99.90
8008;DHT22;4049;49.468;11.200;2024-01-15T11:39:51;-0.80;99.90
8008;DHT22;4049;49.468;11.200;2024-01-15T11:42:20;-0.80;99.90
8008;DHT22;4049;49.468;11.200;2024-01-15T11:44:48;-0.80;99.90
8008;DHT22;4049;49.468;11.200;2024-01-15T11:47:16;-0.80;99.90
8008;DHT22;4049;49.468;11.200;2024-01-15T11:50:04;-0.80;99.90
8008;DHT22;4049;49.468;11.200;2024-01-15T11:52:35;-0.80;99.90
8008;DHT22;4049;49.468;11.200;2024-01-15T11:55:11;-0.80;99.90
8008;DHT22;4049;49.468;11.200;2024-01-15T11:57:45;-0.80;99.90
8008;DHT22;4049;49.468;11.200;2024-01-15T12:00:14;-0.80;99.90
8008;DHT22;4049;49.468;11.200;2024-01-15T12:02:42;-0.80;99.90
8008;DHT22;4049;49.468;11.200;2024-01-15T12:05:10;-0.80;99.90
8008;DHT22;4049;49.468;11.200;2024-01-15T12:07:38;-0.80;99.90
8008;DHT22;4049;49.468;11.200;2024-01-15T12:10:09;-0.80;99.90
8008;DHT22;4049;49.468;11.200;2024-01-15T12:12:47;-0.80;99.90
8008;DHT22;4049;49.468;11.200;2024-01-15T12:15:17;-0.70;99.90
8008;DHT22;4049;49.468;11.200;2024-01-15T12:17:45;-0.70;99.90
8008;DHT22;4049;49.468;11.200;2024-01-15T12:20:13;-0.70;99.90
8008;DHT22;4049;49.468;11.200;2024-01-15T12:22:43;-0.70;99.90
8008;DHT22;4049;49.468;11.200;2024-01-15T12:25:10;-0.70;99.90
8008;DHT22;4049;49.468;11.200;2024-01-15T12:27:37;-0.70;99.90
8008;DHT22;4049;49.468;11.200;2024-01-15T12:30:05;-0.80;99.90
8008;DHT22;4049;49.468;11.200;2024-01-15T12:32:34;-0.70;99.90
8008;DHT22;4049;49.468;11.200;2024-01-15T12:35:01;-0.70;99.90
8008;DHT22;4049;49.468;11.200;2024-01-15T12:37:29;-0.70;99.90
8008;DHT22;4049;49.468;11.200;2024-01-15T12:39:56;-0.70;99.90
8008;DHT22;4049;49.468;11.200;2024-01-15T12:42:28;-0.70;99.90
8008;DHT22;4049;49.468;11.200;2024-01-15T12:44:56;-0.70;99.90
8008;DHT22;4049;49.468;11.200;2024-01-15T12:47:23;-0.70;99.90
8008;DHT22;4049;49.468;11.200;2024-01-15T12:49:52;-0.60;99.90
8008;DHT22;4049;49.468;11.200;2024-01-15T12:52:20;-0.60;99.90
8008;DHT22;4049;49.468;11.200;2024-01-15T12:54:48;-0.60;99.90
8008;DHT22;4049;49.468;11.200;2024-01-15T12:57:15;-0.60;99.90
8008;DHT22;4049;49.468;11.200;2024-01-15T12:59:42;-0.60;99.90
8008;DHT22;4049;49.468;11.200;2024-01-15T13:02:10;-0.60;99.90
8008;DHT22;4049;49.468;11.200;2024-01-15T13:04:37;-0.60;99.90
8008;DHT22;4049;49.468;11.200;2024-01-15T13:07:05;-0.60;99.90
8008;DHT22;4049;49.468;11.200;2024-01-15T13:09:32;-0.50;99.90
8008;DHT22;4049;49.468;11.200;2024-01-15T13:12:00;-0.50;99.90
8008;DHT22;4049;49.468;11.200;2024-01-15T13:14:28;-0.50;99.90
8008;DHT22;4049;49.468;11.200;2024-01-15T13:16:54;-0.50;99.90
8008;DHT22;4049;49.468;11.200;2024-01-15T13:19:21;-0.50;99.90
8008;DHT22;4049;49.468;11.200;2024-01-15T13:21:48;-0.50;99.90
8008;DHT22;4049;49.468;11.200;2024-01-15T13:24:18;-0.50;99.90
8008;DHT22;4049;49.468;11.200;2024-01-15T13:26:44;-0.50;99.90
8008;DHT22;4049;49.468;11.200;2024-01-15T13:29:13;-0.50;99.90
8008;DHT22;4049;49.468;11.200;2024-01-15T13:31:40;-0.50;99.90
8008;DHT22;4049;49.468;11.200;2024-01-15T13:34:07;-0.50;99.90
8008;DHT22;4049;49.468;11.200;2024-01-15T13:36:34;-0.50;99.90
8008;DHT22;4049;49.468;11.200;2024-01-15T13:39:04;-0.60;99.90
8008;DHT22;4049;49.468;11.200;2024-01-15T13:41:35;-0.60;99.90
8008;DHT22;4049;49.468;11.200;2024-01-15T13:44:02;-0.60;99.90
8008;DHT22;4049;49.468;11.200;2024-01-15T13:46:29;-0.60;99.90
8008;DHT22;4049;49.468;11.200;2024-01-15T13:48:56;-0.60;99.90
8008;DHT22;4049;49.468;11.200;2024-01-15T13:51:23;-0.60;99.90
8008;DHT22;4049;49.468;11.200;2024-01-15T13:53:50;-0.60;99.90
8008;DHT22;4049;49.468;11.200;2024-01-15T13:56:17;-0.60;99.90
8008;DHT22;4049;49.468;11.200;2024-01-15T13:58:45;-0.60;99.90
8008;DHT22;4049;49.468;11.200;2024-01-15T14:01:13;-0.60;99.90
8008;DHT22;4049;49.468;11.200;2024-01-15T14:03:40;-0.60;99.90
8008;DHT22;4049;49.468;11.200;2024-01-15T14:06:07;-0.60;99.90
8008;DHT22;4049;49.468;11.200;2024-01-15T14:08:36;-0.60;99.90
8008;DHT22;4049;49.468;11.200;2024-01-15T14:11:04;-0.60;99.90
8008;DHT22;4049;49.468;11.200;2024-01-15T14:13:31;-0.60;99.90
8008;DHT22;4049;49.468;11.200;2024-01-15T14:16:00;-0.60;99.90
8008;DHT22;4049;49.468;11.200;2024-01-15T14:18:27;-0.60;99.90
8008;DHT22;4049;49.468;11.200;2024-01-15T14:20:54;-0.60;99.90
8008;DHT22;4049;49.468;11.200;2024-01-15T14:23:21;-0.60;99.90
8008;DHT22;4049;49.468;11.200;2024-01-15T14:25:47;-0.60;99.90
8008;DHT22;4049;49.468;11.200;2024-01-15T14:28:14;-0.60;99.90
8008;DHT22;4049;49.468;11.200;2024-01-15T14:30:41;-0.60;99.90
8008;DHT22;4049;49.468;11.200;2024-01-15T14:33:09;-0.60;99.90
8008;DHT22;4049;49.468;11.200;2024-01-15T14:35:36;-0.60;99.90
8008;DHT22;4049;49.468;11.200;2024-01-15T14:38:03;-0.60;99.90
8008;DHT22;4049;49.468;11.200;2024-01-15T14:40:30;-0.60;99.90
8008;DHT22;4049;49.468;11.200;2024-01-15T14:42:58;-0.60;99.90
8008;DHT22;4049;49.468;11.200;2024-01-15T14:45:25;-0.60;99.90
8008;DHT22;4049;49.468;11.200;2024-01-15T14:47:52;-0.60;99.90
8008;DHT22;4049;49.468;11.200;2024-01-15T14:50:21;-0.60;99.90
8008;DHT22;4049;49.468;11.200;2024-01-15T14:52:48;-0.60;99.90
8008;DHT22;4049;49.468;11.200;2024-01-15T14:55:15;-0.60;99.90
8008;DHT22;4049;49.468;11.200;2024-01-15T14:57:42;-0.60;99.90
8008;DHT22;4049;49.468;11.200;2024-01-15T15:00:09;-0.60;99.90
8008;DHT22;4049;49.468;11.200;2024-01-15T15:02:39;-0.60;99.90
8008;DHT22;4049;49.468;11.200;2024-01-15T15:05:06;-0.60;99.90
8008;DHT22;4049;49.468;11.200;2024-01-15T15:07:35;-0.60;99.90
8008;DHT22;4049;49.468;11.200;2024-01-15T15:10:02;-0.60;99.90
8008;DHT22;4049;49.468;11.200;2024-01-15T15:12:30;-0.60;99.90
8008;DHT22;4049;49.468;11.200;2024-01-15T15:14:57;-0.60;99.90
8008;DHT22;4049;49.468;11.200;2024-01-15T15:17:23;-0.60;99.90
8008;DHT22;4049;49.468;11.200;2024-01-15T15:19:51;-0.60;99.90
8008;DHT22;4049;49.468;11.200;2024-01-15T15:22:19;-0.60;99.90
8008;DHT22;4049;49.468;11.200;2024-01-15T15:24:47;-0.60;99.90
8008;DHT22;4049;49.468;11.200;2024-01-15T15:27:17;-0.60;99.90
8008;DHT22;4049;49.468;11.200;2024-01-15T15:29:44;-0.70;99.90
8008;DHT22;4049;49.468;11.200;2024-01-15T15:32:11;-0.70;99.90
8008;DHT22;4049;49.468;11.200;2024-01-15T15:34:38;-0.70;99.90
8008;DHT22;4049;49.468;11.200;2024-01-15T15:37:05;-0.70;99.90
8008;DHT22;4049;49.468;11.200;2024-01-15T15:39:32;-0.70;99.90
8008;DHT22;4049;49.468;11.200;2024-01-15T15:42:00;-0.70;99.90
8008;DHT22;4049;49.468;11.200;2024-01-15T15:44:28;-0.70;99.90
8008;DHT22;4049;49.468;11.200;2024-01-15T15:46:54;-0.70;99.90
8008;DHT22;4049;49.468;11.200;2024-01-15T15:49:21;-0.70;99.90
8008;DHT22;4049;49.468;11.200;2024-01-15T15:51:48;-0.70;99.90
8008;DHT22;4049;49.468;11.200;2024-01-15T15:54:15;-0.70;99.90
8008;DHT22;4049;49.468;11.200;2024-01-15T15:56:42;-0.70;99.90
8008;DHT22;4049;49.468;11.200;2024-01-15T15:59:14;-0.70;99.90
8008;DHT22;4049;49.468;11.200;2024-01-15T16:01:43;-0.70;99.90
8008;DHT22;4049;49.468;11.200;2024-01-15T16:04:10;-0.70;99.90
8008;DHT22;4049;49.468;11.200;2024-01-15T16:06:37;-0.70;99.90
8008;DHT22;4049;49.468;11.200;2024-01-15T16:09:03;-0.80;99.90
8008;DHT22;4049;49.468;11.200;2024-01-15T16:11:32;-0.70;99.90
8008;DHT22;4049;49.468;11.200;2024-01-15T16:13:58;-0.80;99.90
8008;DHT22;4049;49.468;11.200;2024-01-15T16:16:27;-0.80;99.90
8008;DHT22;4049;49.468;11.200;2024-01-15T16:18:54;-0.80;99.90
8008;DHT22;4049;49.468;11.200;2024-01-15T16:21:21;-0.70;99.90
8008;DHT22;4049;49.468;11.200;2024-01-15T16:23:48;-0.80;99.90
8008;DHT22;4049;49.468;11.200;2024-01-15T16:26:15;-0.70;99.90
8008;DHT22;4049;49.468;11.200;2024-01-15T16:28:42;-0.70;99.90
8008;DHT22;4049;49.468;11.200;2024-01-15T16:31:09;-0.70;99.90
8008;DHT22;4049;49.468;11.200;2024-01-15T16:33:37;-0.70;99.90
8008;DHT22;4049;49.468;11.200;2024-01-15T16:36:04;-0.70;99.90
8008;DHT22;4049;49.468;11.200;2024-01-15T16:38:31;-0.70;99.90
8008;DHT22;4049;49.468;11.200;2024-01-15T16:40:58;-0.70;99.90
8008;DHT22;4049;49.468;11.200;2024-01-15T16:43:25;-0.70;99.90
8008;DHT22;4049;49.468;11.200;2024-01-15T16:45:52;-0.70;99.90
8008;DHT22;4049;49.468;11.200;2024-01-15T16:48:19;-0.70;99.90
8008;DHT22;4049;49.468;11.200;2024-01-15T16:50:47;-0.70;99.90
8008;DHT22;4049;49.468;11.200;2024-01-15T16:53:14;-0.70;99.90
8008;DHT22;4049;49.468;11.200;2024-01-15T16:55:41;-0.70;99.90
8008;DHT22;4049;49.468;11.200;2024-01-15T16:58:08;-0.60;99.90
8008;DHT22;4049;49.468;11.200;2024-01-15T17:00:35;-0.60;99.90
8008;DHT22;4049;49.468;11.200;2024-01-15T17:03:02;-0.60;99.90